Thursday, August 25, 2016
04:32 UTC
  |  Log In   |  Register Free
Airport Search:

Owatonna Degner Regional Airport
(KOWA)

Owatonna Degner Regional Airport Diagram
No Airport Diagram Available

FAA data valid effective Jul 21 2016 - Sep 15 2016 (unless otherwise noted).

 
 
 
 
 
 
 
 
 
 
 
 
 
 
Current Aviation Weather for KOWA

Weather Summary


The most recent METAR observation for OWA was updated at: 12:41 UTC
METAR for OWA is not available. Closest METAR is for
METAR

METAR KOWA 250416Z 25003KT 10SM CLR 18/16 A3003 RMK AO2

METAR KOWA 250356Z 23004KT 10SM CLR 18/16 A3003 RMK AO2

METAR KOWA 250335Z 22004KT 10SM CLR 18/16 A3003 RMK AO2

METAR KOWA 250315Z 23003KT 10SM CLR 18/16 A3002 RMK AO2

METAR KOWA 250256Z 22004KT 10SM CLR 18/16 A3002 RMK AO2

METAR KOWA 250235Z 22005KT 10SM CLR 18/16 A3002 RMK AO2

METAR KOWA 250215Z 22004KT 10SM CLR 18/16 A3001 RMK AO2

METAR KOWA 250156Z 23003KT 10SM CLR 19/16 A3001 RMK AO2

METAR KOWA 250136Z 23004KT 10SM CLR 19/16 A3001 RMK AO2

METAR K9MN 250414Z 25009KT 10SM CLR 20/16 A3003 RMK AO1 T01950160

METAR KACQ 250414Z 24003KT 10SM CLR 17/15 A3005 RMK AO2

METAR KAEL 250415Z 00000KT 10SM CLR 19/16 A3004 RMK AO2

TAF for OWA is not available.
TAF
Sorry we do not have any TAF information for OWA
GlobalAir.com is loading additional information.
 Current Weather at OWA
64.0 F° (18.0 C°)

Southwest winds at 4.6 mph
Pressure:
30.02 in
Humidity:
88%
Wind:
Southwest at 4.6 mph
Dew Point:
60.8 F° (16.0 C°)
Visibility:
10.00 mi
OWA NOAA Radar




Find All Airport Services Find A Hotel Find A Rental Car Find A Golf Course Find A Restaurant $100 Hamburger



Airport Weather Forecast for KOWA

Translated METAR for KOWA (0416 UTC)
METAR:
KOWA 250416Z AUTO Owatonna Degner Regional, Owatonna, MN (KOWA). Aug 25, 0416Z, Automated. Wind from 250° at 3 knots, 10 statute miles visibility, Clear Skies, Temperature 18°C, Dewpoint 16°C, Altimeter is 30.03. Remarks: automated station with precipitation discriminator
Conditions at:
KOWA (Owatonna Degner Rgnl, MN) observed 0416 UTC 25 August 2016
Temperature:
64.0 F° (18.0 C°)
Dewpoint:
not reported - refer to area weather report
Pressure:
30.02 Hg
Winds:
not reported
Visibility:
10.00
Ceiling:
at least 12,000 feet AGL
Clouds:
not reported - refer to area weather report
Remarks:
site is un-manned

Translated TAF for TAF for OWA is not available. Refer to local area forecast.
FBO's on the Field
FBO Company Facility Photos Services Transportation Aviation Fuel Prices: Prices include tax
Catering Weather Repair Courtesy Rental Type 100LL JetA JetA+ MOGAS 8087
 
Owatonna Degner Regional Airport

This FBO has not yet been rated
FS:Avfuel
Last Updated: Aug-15
Login to update fuel prices
SS:
Contact Owatonna Degner Regional AirportMore FBO Information
 
Add another FBO Facility Photos Catering Weather Repair Courtesy Rental Type 100LL JetA JetA+ MOGAS 8087
Services Transportation Aviation Fuel Prices: Prices include tax


model-print
model-print
model-print
model-print